sensor_id;sensor_type;location;lat;lon;timestamp;P1;durP1;ratioP1;P2;durP2;ratioP2
10641;SDS011;5369;49.586;8.646;2022-11-15T00:02:35;23.27;;;10.70;;
10641;SDS011;5369;49.586;8.646;2022-11-15T00:05:19;28.37;;;14.27;;
10641;SDS011;5369;49.586;8.646;2022-11-15T00:08:04;28.63;;;14.93;;
10641;SDS011;5369;49.586;8.646;2022-11-15T00:10:59;18.97;;;10.37;;
10641;SDS011;5369;49.586;8.646;2022-11-15T00:13:44;22.23;;;11.10;;
10641;SDS011;5369;49.586;8.646;2022-11-15T00:16:29;11.10;;;6.50;;
10641;SDS011;5369;49.586;8.646;2022-11-15T00:19:13;36.77;;;18.10;;
10641;SDS011;5369;49.586;8.646;2022-11-15T00:21:59;21.20;;;10.73;;
10641;SDS011;5369;49.586;8.646;2022-11-15T00:24:43;16.80;;;9.40;;
10641;SDS011;5369;49.586;8.646;2022-11-15T00:27:28;32.43;;;15.83;;
10641;SDS011;5369;49.586;8.646;2022-11-15T00:30:13;33.60;;;15.37;;
10641;SDS011;5369;49.586;8.646;2022-11-15T00:33:01;14.03;;;7.70;;
10641;SDS011;5369;49.586;8.646;2022-11-15T00:35:45;18.23;;;9.07;;
10641;SDS011;5369;49.586;8.646;2022-11-15T00:38:33;36.60;;;16.40;;
10641;SDS011;5369;49.586;8.646;2022-11-15T00:41:19;16.03;;;8.80;;
10641;SDS011;5369;49.586;8.646;2022-11-15T00:44:04;11.90;;;5.70;;
10641;SDS011;5369;49.586;8.646;2022-11-15T00:46:48;5.67;;;4.10;;
10641;SDS011;5369;49.586;8.646;2022-11-15T00:49:33;7.53;;;4.33;;
10641;SDS011;5369;49.586;8.646;2022-11-15T00:52:18;8.57;;;4.93;;
10641;SDS011;5369;49.586;8.646;2022-11-15T00:55:03;13.80;;;7.73;;
10641;SDS011;5369;49.586;8.646;2022-11-15T00:57:47;23.40;;;11.60;;
10641;SDS011;5369;49.586;8.646;2022-11-15T01:00:32;16.20;;;8.77;;
10641;SDS011;5369;49.586;8.646;2022-11-15T01:03:17;16.70;;;8.87;;
10641;SDS011;5369;49.586;8.646;2022-11-15T01:06:02;9.03;;;5.70;;
10641;SDS011;5369;49.586;8.646;2022-11-15T01:08:47;11.27;;;6.10;;
10641;SDS011;5369;49.586;8.646;2022-11-15T01:11:32;12.80;;;7.10;;
10641;SDS011;5369;49.586;8.646;2022-11-15T01:14:17;11.37;;;7.03;;
10641;SDS011;5369;49.586;8.646;2022-11-15T01:17:02;9.20;;;5.60;;
10641;SDS011;5369;49.586;8.646;2022-11-15T01:19:47;6.97;;;4.27;;
10641;SDS011;5369;49.586;8.646;2022-11-15T01:22:32;8.87;;;4.97;;
10641;SDS011;5369;49.586;8.646;2022-11-15T01:25:16;9.50;;;5.70;;
10641;SDS011;5369;49.586;8.646;2022-11-15T01:28:01;9.00;;;4.90;;
10641;SDS011;5369;49.586;8.646;2022-11-15T01:30:46;9.63;;;5.33;;
10641;SDS011;5369;49.586;8.646;2022-11-15T01:33:30;6.73;;;4.90;;
10641;SDS011;5369;49.586;8.646;2022-11-15T01:36:17;6.53;;;4.43;;
10641;SDS011;5369;49.586;8.646;2022-11-15T01:39:02;7.43;;;4.20;;
10641;SDS011;5369;49.586;8.646;2022-11-15T01:41:47;8.23;;;4.90;;
10641;SDS011;5369;49.586;8.646;2022-11-15T01:44:39;7.97;;;5.10;;
10641;SDS011;5369;49.586;8.646;2022-11-15T01:47:26;8.87;;;4.67;;
10641;SDS011;5369;49.586;8.646;2022-11-15T01:50:14;13.40;;;6.43;;
10641;SDS011;5369;49.586;8.646;2022-11-15T01:53:00;16.07;;;7.00;;
10641;SDS011;5369;49.586;8.646;2022-11-15T01:55:44;9.77;;;5.20;;
10641;SDS011;5369;49.586;8.646;2022-11-15T01:58:29;7.93;;;4.40;;
10641;SDS011;5369;49.586;8.646;2022-11-15T02:01:14;14.40;;;7.47;;
10641;SDS011;5369;49.586;8.646;2022-11-15T02:04:00;7.50;;;5.10;;
10641;SDS011;5369;49.586;8.646;2022-11-15T02:06:45;6.00;;;3.97;;
10641;SDS011;5369;49.586;8.646;2022-11-15T02:09:31;6.23;;;4.70;;
10641;SDS011;5369;49.586;8.646;2022-11-15T02:12:16;6.00;;;3.67;;
10641;SDS011;5369;49.586;8.646;2022-11-15T02:15:02;3.77;;;3.40;;
10641;SDS011;5369;49.586;8.646;2022-11-15T02:17:52;4.80;;;3.50;;
10641;SDS011;5369;49.586;8.646;2022-11-15T02:20:41;5.03;;;3.30;;
10641;SDS011;5369;49.586;8.646;2022-11-15T02:26:37;3.93;;;3.10;;
10641;SDS011;5369;49.586;8.646;2022-11-15T02:29:35;5.90;;;3.23;;
10641;SDS011;5369;49.586;8.646;2022-11-15T02:32:31;4.10;;;3.30;;
10641;SDS011;5369;49.586;8.646;2022-11-15T02:35:28;4.03;;;3.30;;
10641;SDS011;5369;49.586;8.646;2022-11-15T02:38:22;3.83;;;3.00;;
10641;SDS011;5369;49.586;8.646;2022-11-15T02:41:14;3.53;;;3.17;;
10641;SDS011;5369;49.586;8.646;2022-11-15T02:44:02;4.03;;;3.10;;
10641;SDS011;5369;49.586;8.646;2022-11-15T02:46:49;3.77;;;2.90;;
10641;SDS011;5369;49.586;8.646;2022-11-15T02:49:55;4.40;;;2.97;;
10641;SDS011;5369;49.586;8.646;2022-11-15T02:52:44;3.90;;;2.80;;
10641;SDS011;5369;49.586;8.646;2022-11-15T03:07:11;4.37;;;2.90;;
10641;SDS011;5369;49.586;8.646;2022-11-15T03:12:57;4.53;;;2.90;;
10641;SDS011;5369;49.586;8.646;2022-11-15T03:16:04;3.47;;;2.97;;
10641;SDS011;5369;49.586;8.646;2022-11-15T03:18:49;4.23;;;3.10;;
10641;SDS011;5369;49.586;8.646;2022-11-15T03:21:34;3.73;;;3.13;;
10641;SDS011;5369;49.586;8.646;2022-11-15T03:24:20;4.27;;;3.27;;
10641;SDS011;5369;49.586;8.646;2022-11-15T03:27:05;5.77;;;2.93;;
10641;SDS011;5369;49.586;8.646;2022-11-15T03:29:55;4.83;;;4.00;;
10641;SDS011;5369;49.586;8.646;2022-11-15T03:32:42;4.43;;;3.30;;
10641;SDS011;5369;49.586;8.646;2022-11-15T03:35:30;3.70;;;3.30;;
10641;SDS011;5369;49.586;8.646;2022-11-15T03:38:21;4.03;;;3.17;;
10641;SDS011;5369;49.586;8.646;2022-11-15T03:41:08;6.37;;;3.80;;
10641;SDS011;5369;49.586;8.646;2022-11-15T03:47:19;3.90;;;3.20;;
10641;SDS011;5369;49.586;8.646;2022-11-15T03:50:10;3.83;;;3.30;;
10641;SDS011;5369;49.586;8.646;2022-11-15T03:52:56;5.37;;;3.73;;
10641;SDS011;5369;49.586;8.646;2022-11-15T03:55:42;4.80;;;3.80;;
10641;SDS011;5369;49.586;8.646;2022-11-15T03:58:27;6.77;;;3.80;;
10641;SDS011;5369;49.586;8.646;2022-11-15T04:01:11;6.67;;;3.80;;
10641;SDS011;5369;49.586;8.646;2022-11-15T04:03:56;4.57;;;3.63;;
10641;SDS011;5369;49.586;8.646;2022-11-15T04:06:41;3.97;;;3.27;;
10641;SDS011;5369;49.586;8.646;2022-11-15T04:09:26;5.63;;;3.63;;
10641;SDS011;5369;49.586;8.646;2022-11-15T04:12:11;6.03;;;4.17;;
10641;SDS011;5369;49.586;8.646;2022-11-15T04:14:56;4.60;;;3.70;;
10641;SDS011;5369;49.586;8.646;2022-11-15T04:17:55;6.70;;;3.83;;
10641;SDS011;5369;49.586;8.646;2022-11-15T04:20:40;5.10;;;3.70;;
10641;SDS011;5369;49.586;8.646;2022-11-15T04:23:44;4.30;;;3.60;;
10641;SDS011;5369;49.586;8.646;2022-11-15T04:26:48;5.50;;;4.00;;
10641;SDS011;5369;49.586;8.646;2022-11-15T04:29:33;5.43;;;4.13;;
10641;SDS011;5369;49.586;8.646;2022-11-15T04:32:18;6.37;;;4.60;;
10641;SDS011;5369;49.586;8.646;2022-11-15T04:35:03;4.73;;;4.03;;
10641;SDS011;5369;49.586;8.646;2022-11-15T04:37:48;8.20;;;4.80;;
10641;SDS011;5369;49.586;8.646;2022-11-15T04:40:33;7.37;;;4.87;;
10641;SDS011;5369;49.586;8.646;2022-11-15T04:43:18;5.30;;;3.90;;
10641;SDS011;5369;49.586;8.646;2022-11-15T04:46:02;5.63;;;4.00;;
10641;SDS011;5369;49.586;8.646;2022-11-15T04:48:47;7.40;;;4.50;;
10641;SDS011;5369;49.586;8.646;2022-11-15T04:51:33;5.93;;;3.87;;
10641;SDS011;5369;49.586;8.646;2022-11-15T04:54:18;7.40;;;4.40;;
10641;SDS011;5369;49.586;8.646;2022-11-15T04:57:03;5.50;;;4.20;;
10641;SDS011;5369;49.586;8.646;2022-11-15T04:59:48;5.80;;;4.23;;
10641;SDS011;5369;49.586;8.646;2022-11-15T05:02:33;6.40;;;4.20;;
10641;SDS011;5369;49.586;8.646;2022-11-15T05:05:36;5.40;;;3.90;;
10641;SDS011;5369;49.586;8.646;2022-11-15T05:08:21;5.28;;;4.50;;
10641;SDS011;5369;49.586;8.646;2022-11-15T05:11:06;4.80;;;3.73;;
10641;SDS011;5369;49.586;8.646;2022-11-15T05:13:51;5.47;;;4.43;;
10641;SDS011;5369;49.586;8.646;2022-11-15T05:16:36;6.00;;;4.30;;
10641;SDS011;5369;49.586;8.646;2022-11-15T05:19:22;6.10;;;4.50;;
10641;SDS011;5369;49.586;8.646;2022-11-15T05:22:07;5.30;;;4.10;;
10641;SDS011;5369;49.586;8.646;2022-11-15T05:24:52;4.90;;;4.07;;
10641;SDS011;5369;49.586;8.646;2022-11-15T05:27:36;5.30;;;4.37;;
10641;SDS011;5369;49.586;8.646;2022-11-15T05:30:21;8.03;;;4.23;;
10641;SDS011;5369;49.586;8.646;2022-11-15T05:33:06;5.27;;;4.10;;
10641;SDS011;5369;49.586;8.646;2022-11-15T05:35:54;6.00;;;4.40;;
10641;SDS011;5369;49.586;8.646;2022-11-15T05:38:41;5.77;;;4.20;;
10641;SDS011;5369;49.586;8.646;2022-11-15T05:41:29;6.13;;;4.37;;
10641;SDS011;5369;49.586;8.646;2022-11-15T05:44:17;6.32;;;4.88;;
10641;SDS011;5369;49.586;8.646;2022-11-15T05:47:02;6.37;;;4.63;;
10641;SDS011;5369;49.586;8.646;2022-11-15T05:49:48;7.13;;;5.43;;
10641;SDS011;5369;49.586;8.646;2022-11-15T05:52:34;5.87;;;4.67;;
10641;SDS011;5369;49.586;8.646;2022-11-15T05:55:20;6.23;;;5.10;;
10641;SDS011;5369;49.586;8.646;2022-11-15T05:58:05;6.90;;;4.67;;
10641;SDS011;5369;49.586;8.646;2022-11-15T06:00:50;6.43;;;4.43;;
10641;SDS011;5369;49.586;8.646;2022-11-15T06:03:35;4.70;;;3.90;;
10641;SDS011;5369;49.586;8.646;2022-11-15T06:06:20;6.57;;;4.53;;
10641;SDS011;5369;49.586;8.646;2022-11-15T06:09:04;5.20;;;4.30;;
10641;SDS011;5369;49.586;8.646;2022-11-15T06:11:49;9.93;;;5.07;;
10641;SDS011;5369;49.586;8.646;2022-11-15T06:14:34;6.63;;;5.30;;
10641;SDS011;5369;49.586;8.646;2022-11-15T06:17:19;6.60;;;5.60;;
10641;SDS011;5369;49.586;8.646;2022-11-15T06:20:04;7.63;;;5.10;;
10641;SDS011;5369;49.586;8.646;2022-11-15T06:22:48;7.25;;;5.72;;
10641;SDS011;5369;49.586;8.646;2022-11-15T06:25:33;6.70;;;4.87;;
10641;SDS011;5369;49.586;8.646;2022-11-15T06:28:18;5.13;;;4.50;;
10641;SDS011;5369;49.586;8.646;2022-11-15T06:31:04;6.47;;;4.70;;
10641;SDS011;5369;49.586;8.646;2022-11-15T06:33:49;7.30;;;4.80;;
10641;SDS011;5369;49.586;8.646;2022-11-15T06:36:34;5.33;;;4.50;;
10641;SDS011;5369;49.586;8.646;2022-11-15T06:39:20;5.67;;;4.23;;
10641;SDS011;5369;49.586;8.646;2022-11-15T06:42:05;6.93;;;4.50;;
10641;SDS011;5369;49.586;8.646;2022-11-15T06:44:49;7.13;;;5.30;;
10641;SDS011;5369;49.586;8.646;2022-11-15T06:47:34;6.47;;;5.20;;
10641;SDS011;5369;49.586;8.646;2022-11-15T06:50:19;8.43;;;5.10;;
10641;SDS011;5369;49.586;8.646;2022-11-15T06:53:03;6.60;;;4.80;;
10641;SDS011;5369;49.586;8.646;2022-11-15T06:55:48;6.33;;;4.77;;
10641;SDS011;5369;49.586;8.646;2022-11-15T06:58:34;7.77;;;5.00;;
10641;SDS011;5369;49.586;8.646;2022-11-15T07:01:20;7.43;;;4.93;;
10641;SDS011;5369;49.586;8.646;2022-11-15T07:04:05;6.60;;;4.50;;
10641;SDS011;5369;49.586;8.646;2022-11-15T07:06:50;9.83;;;5.10;;
10641;SDS011;5369;49.586;8.646;2022-11-15T07:09:35;6.87;;;5.60;;
10641;SDS011;5369;49.586;8.646;2022-11-15T07:12:19;7.33;;;5.83;;
10641;SDS011;5369;49.586;8.646;2022-11-15T07:15:05;7.93;;;5.70;;
10641;SDS011;5369;49.586;8.646;2022-11-15T07:17:50;8.63;;;5.77;;
10641;SDS011;5369;49.586;8.646;2022-11-15T07:20:35;6.80;;;5.50;;
10641;SDS011;5369;49.586;8.646;2022-11-15T07:23:25;6.50;;;5.40;;
10641;SDS011;5369;49.586;8.646;2022-11-15T07:26:10;6.63;;;5.13;;
10641;SDS011;5369;49.586;8.646;2022-11-15T07:28:55;8.67;;;6.30;;
10641;SDS011;5369;49.586;8.646;2022-11-15T07:31:40;8.67;;;6.40;;
10641;SDS011;5369;49.586;8.646;2022-11-15T07:34:25;8.83;;;6.43;;
10641;SDS011;5369;49.586;8.646;2022-11-15T07:37:10;8.40;;;6.43;;
10641;SDS011;5369;49.586;8.646;2022-11-15T07:39:55;8.00;;;6.00;;
10641;SDS011;5369;49.586;8.646;2022-11-15T07:42:40;8.63;;;5.83;;
10641;SDS011;5369;49.586;8.646;2022-11-15T07:45:44;7.33;;;6.00;;
10641;SDS011;5369;49.586;8.646;2022-11-15T07:48:29;7.07;;;5.93;;
10641;SDS011;5369;49.586;8.646;2022-11-15T07:51:15;9.43;;;6.17;;
10641;SDS011;5369;49.586;8.646;2022-11-15T07:54:00;8.67;;;6.47;;
10641;SDS011;5369;49.586;8.646;2022-11-15T07:56:45;12.00;;;7.90;;
10641;SDS011;5369;49.586;8.646;2022-11-15T07:59:30;11.00;;;8.13;;
10641;SDS011;5369;49.586;8.646;2022-11-15T08:02:15;12.03;;;9.20;;
10641;SDS011;5369;49.586;8.646;2022-11-15T08:05:01;12.33;;;8.83;;
10641;SDS011;5369;49.586;8.646;2022-11-15T08:07:46;11.53;;;7.63;;
10641;SDS011;5369;49.586;8.646;2022-11-15T08:10:30;11.20;;;7.90;;
10641;SDS011;5369;49.586;8.646;2022-11-15T08:13:15;8.67;;;5.83;;
10641;SDS011;5369;49.586;8.646;2022-11-15T08:16:01;10.17;;;6.20;;
10641;SDS011;5369;49.586;8.646;2022-11-15T08:18:48;9.80;;;7.03;;
10641;SDS011;5369;49.586;8.646;2022-11-15T08:21:33;7.77;;;5.67;;
10641;SDS011;5369;49.586;8.646;2022-11-15T08:24:18;5.90;;;4.80;;
10641;SDS011;5369;49.586;8.646;2022-11-15T08:27:04;5.40;;;4.40;;
10641;SDS011;5369;49.586;8.646;2022-11-15T08:29:49;5.20;;;4.30;;
10641;SDS011;5369;49.586;8.646;2022-11-15T08:32:34;6.40;;;4.27;;
10641;SDS011;5369;49.586;8.646;2022-11-15T08:35:20;7.57;;;4.60;;
10641;SDS011;5369;49.586;8.646;2022-11-15T08:38:05;6.10;;;4.03;;
10641;SDS011;5369;49.586;8.646;2022-11-15T08:40:50;6.27;;;4.53;;
10641;SDS011;5369;49.586;8.646;2022-11-15T08:43:36;4.87;;;4.33;;
10641;SDS011;5369;49.586;8.646;2022-11-15T08:46:21;4.83;;;4.33;;
10641;SDS011;5369;49.586;8.646;2022-11-15T08:49:06;8.80;;;5.00;;
10641;SDS011;5369;49.586;8.646;2022-11-15T08:51:51;6.57;;;4.60;;
10641;SDS011;5369;49.586;8.646;2022-11-15T08:54:36;5.07;;;4.33;;
10641;SDS011;5369;49.586;8.646;2022-11-15T08:57:21;6.40;;;4.60;;
10641;SDS011;5369;49.586;8.646;2022-11-15T09:00:06;6.57;;;4.57;;
10641;SDS011;5369;49.586;8.646;2022-11-15T09:02:51;5.93;;;4.17;;
10641;SDS011;5369;49.586;8.646;2022-11-15T09:05:36;8.20;;;4.80;;
10641;SDS011;5369;49.586;8.646;2022-11-15T09:08:21;7.40;;;4.33;;
10641;SDS011;5369;49.586;8.646;2022-11-15T09:11:07;6.73;;;4.70;;
10641;SDS011;5369;49.586;8.646;2022-11-15T09:13:52;6.60;;;4.40;;
10641;SDS011;5369;49.586;8.646;2022-11-15T09:16:42;5.73;;;4.13;;
10641;SDS011;5369;49.586;8.646;2022-11-15T09:19:26;7.10;;;4.17;;
10641;SDS011;5369;49.586;8.646;2022-11-15T09:22:11;4.87;;;3.97;;
10641;SDS011;5369;49.586;8.646;2022-11-15T09:24:56;6.27;;;4.40;;
10641;SDS011;5369;49.586;8.646;2022-11-15T09:27:41;6.23;;;4.10;;
10641;SDS011;5369;49.586;8.646;2022-11-15T09:30:26;5.67;;;3.53;;
10641;SDS011;5369;49.586;8.646;2022-11-15T09:33:11;4.07;;;3.30;;
10641;SDS011;5369;49.586;8.646;2022-11-15T09:36:06;6.13;;;3.77;;
10641;SDS011;5369;49.586;8.646;2022-11-15T09:38:51;4.70;;;3.60;;
10641;SDS011;5369;49.586;8.646;2022-11-15T09:44:37;3.93;;;2.93;;
10641;SDS011;5369;49.586;8.646;2022-11-15T09:50:13;4.07;;;3.10;;
10641;SDS011;5369;49.586;8.646;2022-11-15T09:52:41;5.10;;;3.10;;
10641;SDS011;5369;49.586;8.646;2022-11-15T09:55:09;3.83;;;2.70;;
10641;SDS011;5369;49.586;8.646;2022-11-15T09:57:40;4.80;;;2.87;;
10641;SDS011;5369;49.586;8.646;2022-11-15T10:00:30;3.37;;;2.80;;
10641;SDS011;5369;49.586;8.646;2022-11-15T10:05:38;6.27;;;2.90;;
10641;SDS011;5369;49.586;8.646;2022-11-15T10:08:10;3.00;;;2.70;;
10641;SDS011;5369;49.586;8.646;2022-11-15T10:10:42;3.33;;;2.80;;
10641;SDS011;5369;49.586;8.646;2022-11-15T10:13:22;4.00;;;3.07;;
10641;SDS011;5369;49.586;8.646;2022-11-15T10:15:49;3.50;;;2.90;;
10641;SDS011;5369;49.586;8.646;2022-11-15T10:20:54;4.07;;;3.40;;
10641;SDS011;5369;49.586;8.646;2022-11-15T10:23:22;4.60;;;3.20;;
10641;SDS011;5369;49.586;8.646;2022-11-15T10:25:51;4.20;;;3.10;;
10641;SDS011;5369;49.586;8.646;2022-11-15T10:28:27;4.63;;;3.27;;
10641;SDS011;5369;49.586;8.646;2022-11-15T10:30:54;4.20;;;3.27;;
10641;SDS011;5369;49.586;8.646;2022-11-15T10:33:36;3.80;;;3.37;;
10641;SDS011;5369;49.586;8.646;2022-11-15T10:46:33;3.20;;;2.90;;
10641;SDS011;5369;49.586;8.646;2022-11-15T10:49:12;5.30;;;3.27;;
10641;SDS011;5369;49.586;8.646;2022-11-15T10:51:46;8.00;;;3.40;;
10641;SDS011;5369;49.586;8.646;2022-11-15T10:54:14;3.83;;;3.30;;
10641;SDS011;5369;49.586;8.646;2022-11-15T10:56:47;4.53;;;2.80;;
10641;SDS011;5369;49.586;8.646;2022-11-15T10:59:23;4.80;;;3.13;;
10641;SDS011;5369;49.586;8.646;2022-11-15T11:01:50;3.23;;;2.93;;
10641;SDS011;5369;49.586;8.646;2022-11-15T11:04:16;4.40;;;2.90;;
10641;SDS011;5369;49.586;8.646;2022-11-15T11:06:51;4.10;;;2.90;;
10641;SDS011;5369;49.586;8.646;2022-11-15T11:09:28;4.13;;;3.00;;
10641;SDS011;5369;49.586;8.646;2022-11-15T11:11:57;4.30;;;2.87;;
10641;SDS011;5369;49.586;8.646;2022-11-15T11:14:27;3.17;;;2.87;;
10641;SDS011;5369;49.586;8.646;2022-11-15T11:17:06;3.70;;;2.80;;
10641;SDS011;5369;49.586;8.646;2022-11-15T11:19:46;3.87;;;2.70;;
10641;SDS011;5369;49.586;8.646;2022-11-15T11:22:23;3.17;;;2.87;;
10641;SDS011;5369;49.586;8.646;2022-11-15T11:29:58;4.83;;;2.80;;
10641;SDS011;5369;49.586;8.646;2022-11-15T11:35:06;7.03;;;3.70;;
10641;SDS011;5369;49.586;8.646;2022-11-15T11:37:54;4.83;;;2.90;;
10641;SDS011;5369;49.586;8.646;2022-11-15T11:40:30;4.17;;;2.77;;
10641;SDS011;5369;49.586;8.646;2022-11-15T11:48:12;5.73;;;2.60;;
10641;SDS011;5369;49.586;8.646;2022-11-15T11:50:38;6.13;;;2.53;;
10641;SDS011;5369;49.586;8.646;2022-11-15T11:53:09;4.30;;;2.53;;
10641;SDS011;5369;49.586;8.646;2022-11-15T11:55:38;5.67;;;2.50;;
10641;SDS011;5369;49.586;8.646;2022-11-15T12:00:55;4.30;;;2.10;;
10641;SDS011;5369;49.586;8.646;2022-11-15T12:05:54;4.00;;;2.10;;
10641;SDS011;5369;49.586;8.646;2022-11-15T12:10:59;2.93;;;2.20;;
10641;SDS011;5369;49.586;8.646;2022-11-15T12:13:26;2.67;;;2.10;;
10641;SDS011;5369;49.586;8.646;2022-11-15T12:16:03;4.30;;;2.10;;
10641;SDS011;5369;49.586;8.646;2022-11-15T12:18:30;2.80;;;2.10;;
10641;SDS011;5369;49.586;8.646;2022-11-15T12:21:01;2.90;;;2.00;;
10641;SDS011;5369;49.586;8.646;2022-11-15T12:23:37;3.40;;;2.20;;
10641;SDS011;5369;49.586;8.646;2022-11-15T12:26:06;2.40;;;2.20;;
10641;SDS011;5369;49.586;8.646;2022-11-15T12:28:54;2.33;;;2.00;;
10641;SDS011;5369;49.586;8.646;2022-11-15T12:33:49;4.40;;;2.40;;
10641;SDS011;5369;49.586;8.646;2022-11-15T12:41:20;3.33;;;2.10;;
10641;SDS011;5369;49.586;8.646;2022-11-15T12:43:47;2.43;;;2.20;;
10641;SDS011;5369;49.586;8.646;2022-11-15T12:52:07;4.90;;;3.00;;
10641;SDS011;5369;49.586;8.646;2022-11-15T13:27:54;4.97;;;2.97;;
10641;SDS011;5369;49.586;8.646;2022-11-15T13:30:29;2.70;;;2.40;;
10641;SDS011;5369;49.586;8.646;2022-11-15T13:32:56;3.50;;;2.60;;
10641;SDS011;5369;49.586;8.646;2022-11-15T13:35:25;5.43;;;3.00;;
10641;SDS011;5369;49.586;8.646;2022-11-15T13:37:53;4.37;;;2.83;;
10641;SDS011;5369;49.586;8.646;2022-11-15T13:40:21;2.90;;;2.50;;
10641;SDS011;5369;49.586;8.646;2022-11-15T13:42:48;4.33;;;2.57;;
10641;SDS011;5369;49.586;8.646;2022-11-15T13:45:16;8.67;;;5.07;;
10641;SDS011;5369;49.586;8.646;2022-11-15T13:47:42;14.77;;;7.00;;
10641;SDS011;5369;49.586;8.646;2022-11-15T13:50:12;11.80;;;6.60;;
10641;SDS011;5369;49.586;8.646;2022-11-15T13:52:39;10.33;;;5.40;;
10641;SDS011;5369;49.586;8.646;2022-11-15T13:57:48;6.63;;;4.57;;
10641;SDS011;5369;49.586;8.646;2022-11-15T14:02:48;5.33;;;3.13;;
10641;SDS011;5369;49.586;8.646;2022-11-15T14:05:16;3.93;;;3.13;;
10641;SDS011;5369;49.586;8.646;2022-11-15T14:07:52;5.10;;;3.00;;
10641;SDS011;5369;49.586;8.646;2022-11-15T14:10:30;3.27;;;2.63;;
10641;SDS011;5369;49.586;8.646;2022-11-15T14:12:56;3.00;;;2.50;;
10641;SDS011;5369;49.586;8.646;2022-11-15T14:17:49;5.43;;;3.23;;
10641;SDS011;5369;49.586;8.646;2022-11-15T14:20:24;3.90;;;3.20;;
10641;SDS011;5369;49.586;8.646;2022-11-15T14:22:58;3.60;;;2.90;;
10641;SDS011;5369;49.586;8.646;2022-11-15T14:25:25;3.90;;;2.87;;
10641;SDS011;5369;49.586;8.646;2022-11-15T14:30:55;6.87;;;4.90;;
10641;SDS011;5369;49.586;8.646;2022-11-15T14:33:30;5.23;;;3.93;;
10641;SDS011;5369;49.586;8.646;2022-11-15T14:35:57;4.97;;;4.10;;
10641;SDS011;5369;49.586;8.646;2022-11-15T14:38:24;6.60;;;4.77;;
10641;SDS011;5369;49.586;8.646;2022-11-15T14:40:50;5.33;;;4.00;;
10641;SDS011;5369;49.586;8.646;2022-11-15T14:43:17;4.80;;;4.00;;
10641;SDS011;5369;49.586;8.646;2022-11-15T14:45:43;6.83;;;3.53;;
10641;SDS011;5369;49.586;8.646;2022-11-15T14:48:09;5.47;;;3.60;;
10641;SDS011;5369;49.586;8.646;2022-11-15T14:50:35;7.87;;;3.63;;
10641;SDS011;5369;49.586;8.646;2022-11-15T14:53:02;3.67;;;3.30;;
10641;SDS011;5369;49.586;8.646;2022-11-15T14:55:33;5.03;;;3.03;;
10641;SDS011;5369;49.586;8.646;2022-11-15T14:58:04;5.43;;;3.30;;
10641;SDS011;5369;49.586;8.646;2022-11-15T15:00:33;7.17;;;4.77;;
10641;SDS011;5369;49.586;8.646;2022-11-15T15:02:59;6.97;;;4.57;;
10641;SDS011;5369;49.586;8.646;2022-11-15T15:05:33;7.90;;;5.50;;
10641;SDS011;5369;49.586;8.646;2022-11-15T15:08:00;5.93;;;4.60;;
10641;SDS011;5369;49.586;8.646;2022-11-15T15:10:42;14.03;;;8.67;;
10641;SDS011;5369;49.586;8.646;2022-11-15T15:13:19;9.30;;;6.33;;
10641;SDS011;5369;49.586;8.646;2022-11-15T15:15:45;8.13;;;5.10;;
10641;SDS011;5369;49.586;8.646;2022-11-15T15:18:12;5.57;;;4.43;;
10641;SDS011;5369;49.586;8.646;2022-11-15T15:20:39;4.13;;;2.77;;
10641;SDS011;5369;49.586;8.646;2022-11-15T15:23:08;4.77;;;2.50;;
10641;SDS011;5369;49.586;8.646;2022-11-15T15:25:39;4.27;;;2.73;;
10641;SDS011;5369;49.586;8.646;2022-11-15T15:28:07;10.27;;;5.30;;
10641;SDS011;5369;49.586;8.646;2022-11-15T15:30:33;6.55;;;4.30;;
10641;SDS011;5369;49.586;8.646;2022-11-15T15:32:59;5.10;;;3.30;;
10641;SDS011;5369;49.586;8.646;2022-11-15T15:35:28;5.40;;;3.93;;
10641;SDS011;5369;49.586;8.646;2022-11-15T15:37:55;4.00;;;2.63;;
10641;SDS011;5369;49.586;8.646;2022-11-15T15:40:22;2.80;;;2.10;;
10641;SDS011;5369;49.586;8.646;2022-11-15T15:42:48;2.63;;;2.20;;
10641;SDS011;5369;49.586;8.646;2022-11-15T15:45:15;4.07;;;2.80;;
10641;SDS011;5369;49.586;8.646;2022-11-15T15:47:42;5.77;;;3.63;;
10641;SDS011;5369;49.586;8.646;2022-11-15T15:50:20;5.93;;;3.40;;
10641;SDS011;5369;49.586;8.646;2022-11-15T15:52:47;6.97;;;3.70;;
10641;SDS011;5369;49.586;8.646;2022-11-15T15:55:13;5.10;;;2.70;;
10641;SDS011;5369;49.586;8.646;2022-11-15T15:57:39;2.33;;;2.07;;
10641;SDS011;5369;49.586;8.646;2022-11-15T16:00:06;4.32;;;2.20;;
10641;SDS011;5369;49.586;8.646;2022-11-15T16:02:37;3.47;;;2.20;;
10641;SDS011;5369;49.586;8.646;2022-11-15T16:05:04;8.17;;;3.87;;
10641;SDS011;5369;49.586;8.646;2022-11-15T16:07:31;5.97;;;3.53;;
10641;SDS011;5369;49.586;8.646;2022-11-15T16:09:57;5.10;;;3.00;;
10641;SDS011;5369;49.586;8.646;2022-11-15T16:12:27;4.57;;;3.10;;
10641;SDS011;5369;49.586;8.646;2022-11-15T16:14:53;4.43;;;2.97;;
10641;SDS011;5369;49.586;8.646;2022-11-15T16:17:20;4.87;;;2.83;;
10641;SDS011;5369;49.586;8.646;2022-11-15T16:19:47;9.90;;;6.10;;
10641;SDS011;5369;49.586;8.646;2022-11-15T16:22:13;7.47;;;5.03;;
10641;SDS011;5369;49.586;8.646;2022-11-15T16:24:39;5.47;;;3.90;;
10641;SDS011;5369;49.586;8.646;2022-11-15T16:27:09;8.07;;;4.10;;
10641;SDS011;5369;49.586;8.646;2022-11-15T16:29:38;8.77;;;3.63;;
10641;SDS011;5369;49.586;8.646;2022-11-15T16:32:04;5.90;;;3.87;;
10641;SDS011;5369;49.586;8.646;2022-11-15T16:34:30;5.60;;;3.33;;
10641;SDS011;5369;49.586;8.646;2022-11-15T16:36:56;4.67;;;2.97;;
10641;SDS011;5369;49.586;8.646;2022-11-15T16:39:22;5.30;;;2.73;;
10641;SDS011;5369;49.586;8.646;2022-11-15T16:41:48;3.67;;;2.70;;
10641;SDS011;5369;49.586;8.646;2022-11-15T16:44:15;6.70;;;3.10;;
10641;SDS011;5369;49.586;8.646;2022-11-15T16:46:41;4.57;;;2.77;;
10641;SDS011;5369;49.586;8.646;2022-11-15T16:49:14;4.97;;;3.10;;
10641;SDS011;5369;49.586;8.646;2022-11-15T16:51:40;5.22;;;2.83;;
10641;SDS011;5369;49.586;8.646;2022-11-15T16:54:09;5.00;;;3.00;;
10641;SDS011;5369;49.586;8.646;2022-11-15T16:56:35;4.27;;;2.97;;
10641;SDS011;5369;49.586;8.646;2022-11-15T16:59:01;3.37;;;2.47;;
10641;SDS011;5369;49.586;8.646;2022-11-15T17:01:34;3.60;;;2.80;;
10641;SDS011;5369;49.586;8.646;2022-11-15T17:04:01;4.93;;;2.73;;
10641;SDS011;5369;49.586;8.646;2022-11-15T17:06:37;5.88;;;3.47;;
10641;SDS011;5369;49.586;8.646;2022-11-15T17:09:04;5.97;;;3.20;;
10641;SDS011;5369;49.586;8.646;2022-11-15T17:11:30;4.20;;;3.00;;
10641;SDS011;5369;49.586;8.646;2022-11-15T17:13:57;4.37;;;2.77;;
10641;SDS011;5369;49.586;8.646;2022-11-15T17:16:24;5.07;;;3.00;;
10641;SDS011;5369;49.586;8.646;2022-11-15T17:18:50;4.67;;;2.60;;
10641;SDS011;5369;49.586;8.646;2022-11-15T17:21:19;3.90;;;2.50;;
10641;SDS011;5369;49.586;8.646;2022-11-15T17:23:46;4.00;;;2.90;;
10641;SDS011;5369;49.586;8.646;2022-11-15T17:26:13;3.00;;;2.70;;
10641;SDS011;5369;49.586;8.646;2022-11-15T17:28:42;7.13;;;3.10;;
10641;SDS011;5369;49.586;8.646;2022-11-15T17:31:11;3.80;;;2.67;;
10641;SDS011;5369;49.586;8.646;2022-11-15T17:33:39;4.43;;;3.00;;
10641;SDS011;5369;49.586;8.646;2022-11-15T17:36:06;4.20;;;2.50;;
10641;SDS011;5369;49.586;8.646;2022-11-15T17:38:33;3.87;;;2.73;;
10641;SDS011;5369;49.586;8.646;2022-11-15T17:41:08;4.17;;;2.80;;
10641;SDS011;5369;49.586;8.646;2022-11-15T17:43:35;3.53;;;2.70;;
10641;SDS011;5369;49.586;8.646;2022-11-15T17:46:05;5.22;;;3.97;;
10641;SDS011;5369;49.586;8.646;2022-11-15T17:48:32;6.63;;;4.00;;
10641;SDS011;5369;49.586;8.646;2022-11-15T17:51:02;5.77;;;3.83;;
10641;SDS011;5369;49.586;8.646;2022-11-15T17:53:33;4.23;;;3.00;;
10641;SDS011;5369;49.586;8.646;2022-11-15T17:56:05;4.47;;;2.73;;
10641;SDS011;5369;49.586;8.646;2022-11-15T17:58:31;6.30;;;3.83;;
10641;SDS011;5369;49.586;8.646;2022-11-15T18:03:54;4.57;;;2.80;;
10641;SDS011;5369;49.586;8.646;2022-11-15T18:06:20;5.90;;;3.40;;
10641;SDS011;5369;49.586;8.646;2022-11-15T18:08:47;4.27;;;3.60;;
10641;SDS011;5369;49.586;8.646;2022-11-15T18:11:16;15.20;;;10.77;;
10641;SDS011;5369;49.586;8.646;2022-11-15T18:13:44;8.27;;;6.70;;
10641;SDS011;5369;49.586;8.646;2022-11-15T18:16:12;7.90;;;7.10;;